Time;durP1;ratioP1;P1;durP2;ratioP2;P2;SDS_P1;SDS_P2;PMS_P1;PMS_P2;Temp;Humidity;BMP_temperature;BMP_pressure;BME280_temperature;BME280_humidity;BME280_pressure;Samples;Min_cycle;Max_cycle;Signal;HPM_P1;HPM_P2
2022/11/20 00:01:23;;;;;;;;;26.50;21.00;;;;;0.92;66.15;101396.63;5018755;28;12349;-64
2022/11/20 00:03:55;;;;;;;;;18.00;17.50;;;;;0.89;66.08;101389.78;5028723;28;11657;-64
2022/11/20 00:06:22;;;;;;;;;19.75;17.00;;;;;0.88;66.47;101390.72;5030387;28;11564;-66
2022/11/20 00:08:49;;;;;;;;;17.00;16.00;;;;;0.86;66.18;101383.84;5030664;28;11608;-64
2022/11/20 00:11:18;;;;;;;;;18.75;16.00;;;;;0.87;66.23;101396.97;5045163;28;11548;-65
2022/11/20 00:13:46;;;;;;;;;23.50;19.25;;;;;0.89;66.76;101386.25;5029450;28;11640;-65
2022/11/20 00:16:14;;;;;;;;;22.25;17.00;;;;;0.89;66.28;101389.78;5026340;28;11666;-65
2022/11/20 00:18:42;;;;;;;;;20.00;13.00;;;;;0.88;66.43;101388.06;5022279;28;11560;-65
2022/11/20 00:21:16;;;;;;;;;14.50;12.75;;;;;0.90;66.09;101386.16;5027301;28;12360;-65
2022/11/20 00:23:43;;;;;;;;;15.00;15.00;;;;;0.89;66.32;101389.78;5030389;28;11559;-65
2022/11/20 00:26:12;;;;;;;;;14.00;13.00;;;;;0.90;66.06;101385.31;5030073;28;11552;-65
2022/11/20 00:28:39;;;;;;;;;21.00;15.00;;;;;0.91;66.31;101384.34;5021673;28;11568;-65
2022/11/20 00:31:08;;;;;;;;;16.50;14.75;;;;;0.90;65.87;101385.31;5028652;28;11570;-65
2022/11/20 00:33:34;;;;;;;;;25.75;20.50;;;;;0.89;66.08;101384.47;5029970;28;11640;-65
2022/11/20 00:36:03;;;;;;;;;22.00;14.25;;;;;0.88;66.30;101377.47;5025338;28;11569;-65
2022/11/20 00:38:33;;;;;;;;;12.25;12.25;;;;;0.91;66.01;101355.19;5020365;28;11579;-65
2022/11/20 00:41:02;;;;;;;;;17.00;10.50;;;;;0.92;65.51;101365.66;5029314;28;11626;-65
2022/11/20 00:43:28;;;;;;;;;21.75;18.50;;;;;0.95;65.31;101361.94;5030085;28;11582;-65
2022/11/20 00:46:03;;;;;;;;;14.25;10.00;;;;;0.92;65.27;101370.97;5029679;28;11610;-64
2022/11/20 00:48:30;;;;;;;;;15.75;14.50;;;;;0.90;64.83;101367.59;5030066;28;11502;-65
2022/11/20 00:50:57;;;;;;;;;12.00;9.75;;;;;0.90;65.20;101367.59;5027093;28;11550;-65
2022/11/20 00:53:24;;;;;;;;;17.50;14.50;;;;;0.92;65.02;101365.66;5016448;28;11644;-65
2022/11/20 00:55:59;;;;;;;;;15.50;15.25;;;;;0.88;65.24;101366.84;5017836;28;11551;-65
2022/11/20 00:58:30;;;;;;;;;17.25;14.25;;;;;0.83;64.93;101365.53;5051095;28;11707;-64
2022/11/20 01:01:01;;;;;;;;;12.50;11.25;;;;;0.78;65.46;101371.19;5032517;28;11579;-65
2022/11/20 01:03:32;;;;;;;;;17.50;15.75;;;;;0.73;65.58;101366.25;5033303;28;12294;-65
2022/11/20 01:06:09;;;;;;;;;17.50;14.50;;;;;0.70;65.77;101368.28;5033693;28;11558;-65
2022/11/20 01:08:36;;;;;;;;;16.75;15.00;;;;;0.66;65.70;101372.97;5033844;28;11565;-65
2022/11/20 01:11:06;;;;;;;;;16.25;15.25;;;;;0.63;65.70;101372.34;5034977;28;11572;-65
2022/11/20 01:13:38;;;;;;;;;18.00;16.00;;;;;0.61;65.57;101375.13;5022600;28;11729;-65
2022/11/20 01:16:14;;;;;;;;;19.50;18.75;;;;;0.62;66.42;101370.69;5033482;28;11566;-66
2022/11/20 01:18:44;;;;;;;;;18.00;17.00;;;;;0.60;66.50;101368.13;5023446;28;11550;-65
2022/11/20 01:21:15;;;;;;;;;17.50;13.25;;;;;0.58;66.43;101364.78;5032645;28;11711;-65
2022/11/20 01:23:42;;;;;;;;;11.50;9.75;;;;;0.56;66.17;101364.03;5030357;28;11616;-65
2022/11/20 01:26:11;;;;;;;;;12.50;11.50;;;;;0.53;66.27;101358.13;5032346;28;11593;-65
2022/11/20 01:28:40;;;;;;;;;18.00;16.00;;;;;0.51;66.87;101352.94;5023409;28;11593;-64
2022/11/20 01:31:34;;;;;;;;;18.50;16.00;;;;;0.52;66.63;101353.78;5032857;28;12309;-65
2022/11/20 01:34:05;;;;;;;;;17.00;17.00;;;;;0.55;66.66;101346.44;5030284;28;11555;-65
2022/11/20 01:36:34;;;;;;;;;15.50;14.00;;;;;0.54;66.12;101343.94;5046094;28;11591;-65
2022/11/20 01:39:03;;;;;;;;;16.25;15.25;;;;;0.52;66.59;101343.19;5023790;28;11580;-64
2022/11/20 01:44:22;;;;;;;;;19.50;18.75;;;;;0.49;66.42;101344.28;5021173;28;11658;-65
2022/11/20 01:47:01;;;;;;;;;17.75;17.00;;;;;0.43;66.11;101339.44;5013355;28;11627;-65
2022/11/20 01:49:38;;;;;;;;;24.25;12.50;;;;;0.39;66.70;101338.81;5031049;28;11552;-65
2022/11/20 01:52:12;;;;;;;;;16.00;13.50;;;;;0.36;66.05;101333.75;5026105;28;11564;-65
2022/11/20 01:54:46;;;;;;;;;18.50;16.00;;;;;0.33;66.38;101338.47;5028724;28;11563;-64
2022/11/20 01:57:15;;;;;;;;;15.50;13.50;;;;;0.33;67.12;101334.00;5025951;28;11678;-65
2022/11/20 01:59:57;;;;;;;;;18.00;15.50;;;;;0.31;66.80;101333.25;5024035;28;11578;-65
2022/11/20 02:02:23;;;;;;;;;18.00;13.50;;;;;0.29;66.72;101337.84;5032706;28;11567;-65
2022/11/20 02:04:53;;;;;;;;;18.75;15.00;;;;;0.28;66.93;101312.31;5032490;28;11557;-65
2022/11/20 02:07:20;;;;;;;;;16.50;16.50;;;;;0.30;67.33;101317.50;5032589;28;11598;-66
2022/11/20 02:09:47;;;;;;;;;17.75;14.25;;;;;0.32;67.38;101315.56;5030701;28;11720;-65
2022/11/20 02:13:42;;;;;;;;;17.00;14.50;;;;;0.31;67.05;101314.72;5024171;28;11601;-65
2022/11/20 02:15:01;;;;;;;;;16.25;12.50;;;;;0.30;67.63;101320.16;5032521;28;11553;-65
2022/11/20 02:17:27;;;;;;;;;19.50;16.00;;;;;0.28;66.98;101317.59;5031575;28;11638;-65
2022/11/20 02:19:54;;;;;;;;;16.00;13.25;;;;;0.26;67.76;101316.88;5026482;28;11568;-64
2022/11/20 02:22:30;;;;;;;;;15.50;15.00;;;;;0.25;67.70;101315.22;5029801;28;11577;-65
2022/11/20 02:25:01;;;;;;;;;16.50;15.25;;;;;0.23;67.24;101317.13;5031573;28;11581;-66
2022/11/20 02:27:28;;;;;;;;;15.50;14.00;;;;;0.21;67.65;101313.75;5024208;28;11603;-65
2022/11/20 02:30:04;;;;;;;;;19.50;15.00;;;;;0.21;67.57;101313.75;5030519;28;11541;-65
2022/11/20 02:32:34;;;;;;;;;18.25;13.50;;;;;0.23;67.34;101309.16;5032606;28;12416;-65
2022/11/20 02:35:26;;;;;;;;;20.00;17.00;;;;;0.22;67.87;101310.97;5028183;28;11537;-65
2022/11/20 02:37:55;;;;;;;;;14.25;12.00;;;;;0.20;67.36;101312.03;5008288;28;12283;-66
2022/11/20 02:40:22;;;;;;;;;19.75;18.75;;;;;0.19;67.21;101316.50;5030769;28;12395;-65
2022/11/20 02:42:53;;;;;;;;;15.75;15.50;;;;;0.18;67.52;101311.34;5032273;28;11540;-65
2022/11/20 02:45:19;;;;;;;;;16.50;13.50;;;;;0.15;67.53;101311.56;5031930;28;11555;-65
2022/11/20 02:47:46;;;;;;;;;18.25;18.25;;;;;0.12;67.65;101309.13;5027867;28;12304;-66
2022/11/20 02:50:12;;;;;;;;;19.50;16.50;;;;;0.08;67.62;101300.59;5046192;28;11611;-64
2022/11/20 02:52:38;;;;;;;;;16.50;13.50;;;;;0.09;67.67;101299.63;5026614;28;11555;-65
2022/11/20 02:55:05;;;;;;;;;16.50;15.00;;;;;0.10;67.77;101295.19;5031576;28;11568;-66
2022/11/20 02:57:32;;;;;;;;;15.75;15.75;;;;;0.11;67.57;101295.06;5031606;28;11615;-65
2022/11/20 02:59:58;;;;;;;;;14.50;14.50;;;;;0.11;68.00;101300.34;5031013;28;12441;-65
2022/11/20 03:02:25;;;;;;;;;19.00;17.00;;;;;0.08;67.71;101297.97;5022588;28;11609;-65
2022/11/20 03:04:51;;;;;;;;;19.75;14.00;;;;;0.04;67.41;101296.50;5031216;28;11580;-65
2022/11/20 03:07:17;;;;;;;;;15.25;15.25;;;;;0.02;67.80;101297.56;5031440;28;11560;-65
2022/11/20 03:09:44;;;;;;;;;15.50;12.50;;;;;0.04;68.15;101295.63;5027133;28;11570;-66
2022/11/20 03:12:10;;;;;;;;;16.50;15.75;;;;;0.02;67.42;101290.47;5031324;28;11591;-64
2022/11/20 03:14:37;;;;;;;;;19.00;15.50;;;;;-0.01;67.56;101285.38;5030408;28;11598;-65
2022/11/20 03:17:03;;;;;;;;;18.50;16.00;;;;;-0.04;67.72;101283.84;5027369;28;11589;-65
2022/11/20 03:19:30;;;;;;;;;18.75;18.25;;;;;-0.04;67.70;101285.59;5030591;28;11558;-65
2022/11/20 03:21:56;;;;;;;;;21.00;16.00;;;;;-0.06;67.64;101279.59;5029807;28;11585;-65
2022/11/20 03:24:23;;;;;;;;;18.00;14.50;;;;;-0.10;68.19;101276.34;5025580;28;11705;-65
2022/11/20 03:26:49;;;;;;;;;16.00;15.75;;;;;-0.10;68.02;101279.00;5023653;28;12284;-65
2022/11/20 03:29:15;;;;;;;;;21.75;20.00;;;;;-0.09;68.13;101274.53;5047638;28;11553;-64
2022/11/20 03:31:42;;;;;;;;;21.25;17.50;;;;;-0.10;68.03;101267.56;5030832;28;11591;-65
2022/11/20 03:34:10;;;;;;;;;15.50;12.50;;;;;-0.11;68.60;101269.38;5031146;28;11656;-66
2022/11/20 03:36:38;;;;;;;;;12.75;10.50;;;;;-0.08;68.46;101262.97;5029667;28;11525;-65
2022/11/20 03:39:05;;;;;;;;;18.00;15.00;;;;;-0.07;68.48;101268.19;5024025;28;11563;-65
2022/11/20 03:41:36;;;;;;;;;23.00;16.00;;;;;-0.05;68.09;101260.13;5020843;28;12391;-64
2022/11/20 03:44:05;;;;;;;;;16.00;16.00;;;;;-0.05;68.33;101255.66;5028934;28;12282;-65
2022/11/20 03:46:32;;;;;;;;;14.50;12.50;;;;;-0.07;67.91;101262.06;5030474;28;11574;-65
2022/11/20 03:48:59;;;;;;;;;15.00;15.00;;;;;-0.07;68.31;101257.59;5030652;28;11668;-64
2022/11/20 03:51:27;;;;;;;;;19.25;15.75;;;;;-0.03;68.55;101258.22;5018440;28;11583;-64
2022/11/20 03:53:56;;;;;;;;;15.50;12.75;;;;;-0.04;68.05;101257.38;5030710;28;11589;-63
2022/11/20 03:56:26;;;;;;;;;21.50;16.25;;;;;-0.03;68.14;101252.91;5028039;28;11584;-65
2022/11/20 03:58:52;;;;;;;;;12.00;12.00;;;;;-0.02;68.31;101255.44;5030820;28;11594;-65
2022/11/20 04:01:30;;;;;;;;;17.25;15.00;;;;;-0.02;68.01;101252.78;5029521;28;11569;-64
2022/11/20 04:03:57;;;;;;;;;20.00;15.00;;;;;-0.04;68.15;101246.78;5031220;28;11549;-64
2022/11/20 04:06:26;;;;;;;;;13.00;13.00;;;;;-0.07;67.89;101236.44;5030809;28;12215;-64
2022/11/20 04:08:57;;;;;;;;;23.00;15.25;;;;;-0.10;67.67;101231.34;5029708;28;12331;-64
2022/11/20 04:11:26;;;;;;;;;17.00;17.00;;;;;-0.13;67.53;101228.09;5024683;28;12364;-65
2022/11/20 04:14:01;;;;;;;;;23.50;16.00;;;;;-0.13;68.07;101222.81;5027046;28;11585;-63
2022/11/20 04:16:33;;;;;;;;;18.25;16.00;;;;;-0.16;68.31;101215.97;5021108;28;12368;-64
2022/11/20 04:19:03;;;;;;;;;15.00;15.00;;;;;-0.19;68.17;101221.47;5030316;28;11548;-64
2022/11/20 04:21:29;;;;;;;;;18.00;16.50;;;;;-0.20;68.25;101217.16;5029828;28;11652;-64
2022/11/20 04:23:56;;;;;;;;;17.50;16.00;;;;;-0.21;67.92;101218.09;5030281;28;11563;-65
2022/11/20 04:26:25;;;;;;;;;15.50;15.25;;;;;-0.20;67.91;101222.44;5029183;28;11540;-64
2022/11/20 04:28:52;;;;;;;;;20.00;17.50;;;;;-0.19;68.26;101220.63;5027152;28;11580;-64
2022/11/20 04:31:21;;;;;;;;;16.50;12.50;;;;;-0.20;68.28;101224.22;5027098;28;11549;-64
2022/11/20 04:33:48;;;;;;;;;22.75;19.50;;;;;-0.23;67.98;101224.47;5013621;28;11595;-64
2022/11/20 04:36:17;;;;;;;;;19.00;15.75;;;;;-0.25;67.78;101227.22;5028081;28;11602;-64
2022/11/20 04:38:44;;;;;;;;;19.25;17.00;;;;;-0.28;68.32;101228.31;5026174;28;11608;-64
2022/11/20 04:41:18;;;;;;;;;19.50;15.75;;;;;-0.26;68.28;101220.25;5020358;28;11588;-64
2022/11/20 04:43:58;;;;;;;;;20.00;19.00;;;;;-0.28;68.67;101217.72;5021848;28;11552;-64
2022/11/20 04:46:26;;;;;;;;;21.00;18.25;;;;;-0.29;68.47;101217.81;5029899;28;12616;-65
2022/11/20 04:48:53;;;;;;;;;16.00;16.00;;;;;-0.30;68.61;101213.50;5029906;28;11572;-65
2022/11/20 04:51:20;;;;;;;;;23.50;18.00;;;;;-0.30;68.48;101213.50;5029435;28;11640;-65
2022/11/20 04:53:46;;;;;;;;;21.25;15.50;;;;;-0.28;68.73;101216.88;5029997;28;11676;-64
2022/11/20 04:56:13;;;;;;;;;16.75;14.00;;;;;-0.25;68.55;101209.53;5022262;28;11656;-65
2022/11/20 04:58:40;;;;;;;;;20.50;11.75;;;;;-0.20;68.66;101198.63;5029921;28;11568;-65
2022/11/20 05:01:13;;;;;;;;;16.25;15.75;;;;;-0.18;68.91;101201.16;5028476;28;11584;-65
2022/11/20 05:03:41;;;;;;;;;18.00;15.00;;;;;-0.19;68.40;101191.53;5026694;28;11602;-64
2022/11/20 05:06:10;;;;;;;;;21.00;16.00;;;;;-0.21;68.51;101183.69;5021296;28;11653;-65
2022/11/20 05:08:36;;;;;;;;;16.00;15.25;;;;;-0.21;68.21;101193.44;5019416;28;11599;-65
2022/11/20 05:11:09;;;;;;;;;16.50;15.00;;;;;-0.21;68.69;101182.84;5028354;28;11746;-65
2022/11/20 05:13:36;;;;;;;;;20.00;17.00;;;;;-0.25;68.60;101187.53;5019825;28;11646;-66
2022/11/20 05:16:12;;;;;;;;;22.00;17.50;;;;;-0.26;68.52;101172.63;5029430;28;11573;-64
2022/11/20 05:18:40;;;;;;;;;19.25;15.25;;;;;-0.30;68.31;101181.75;5029896;28;11579;-65
2022/11/20 05:21:08;;;;;;;;;21.00;17.00;;;;;-0.31;68.83;101186.22;5043612;28;11695;-66
2022/11/20 05:23:35;;;;;;;;;21.75;19.50;;;;;-0.32;68.38;101181.03;5029735;28;11558;-65
2022/11/20 05:26:02;;;;;;;;;22.75;17.00;;;;;-0.35;68.26;101194.50;5023667;28;11582;-66
2022/11/20 05:28:30;;;;;;;;;21.75;18.75;;;;;-0.37;68.33;101191.94;5026980;28;11585;-65
2022/11/20 05:31:07;;;;;;;;;26.75;23.50;;;;;-0.41;68.62;101182.56;5023009;28;11575;-65
2022/11/20 05:33:34;;;;;;;;;15.50;12.25;;;;;-0.42;69.01;101183.50;5029819;28;11658;-66
2022/11/20 05:36:03;;;;;;;;;19.25;17.00;;;;;-0.40;69.27;101186.06;5025946;28;11578;-66
2022/11/20 05:38:30;;;;;;;;;17.50;17.00;;;;;-0.41;69.13;101198.41;5021509;28;11543;-66
2022/11/20 05:41:13;;;;;;;;;17.25;15.50;;;;;-0.42;68.83;101195.91;5027694;28;11575;-65
2022/11/20 05:43:42;;;;;;;;;17.50;17.00;;;;;-0.40;68.62;101199.28;5029159;28;11560;-66
2022/11/20 05:46:10;;;;;;;;;20.50;17.00;;;;;-0.38;68.81;101189.41;5021669;28;11651;-65
2022/11/20 05:48:39;;;;;;;;;16.00;14.00;;;;;-0.39;68.94;101196.53;5036882;28;11652;-65
2022/11/20 05:51:07;;;;;;;;;17.00;16.00;;;;;-0.40;68.85;101205.41;5027695;28;12313;-66
2022/11/20 05:53:35;;;;;;;;;12.50;10.00;;;;;-0.41;68.52;101203.72;5014626;28;11577;-66
2022/11/20 05:56:04;;;;;;;;;20.50;17.00;;;;;-0.40;68.70;101205.41;5032341;28;11534;-65
2022/11/20 05:58:32;;;;;;;;;22.25;18.75;;;;;-0.39;69.01;101200.97;5030886;28;11552;-65
2022/11/20 06:01:25;;;;;;;;;18.00;18.00;;;;;-0.40;69.04;101199.28;5024472;28;11569;-66
2022/11/20 06:03:53;;;;;;;;;18.25;18.00;;;;;-0.39;68.57;101203.63;5028908;28;11550;-66
2022/11/20 06:06:20;;;;;;;;;21.00;20.50;;;;;-0.39;69.09;101199.16;5032706;28;11552;-66
2022/11/20 06:08:46;;;;;;;;;17.50;16.00;;;;;-0.38;69.07;101192.06;5032877;28;12397;-65
2022/11/20 06:11:14;;;;;;;;;20.50;19.50;;;;;-0.40;68.65;101191.34;5032530;28;11562;-66
2022/11/20 06:13:41;;;;;;;;;25.50;19.00;;;;;-0.44;68.66;101193.38;5029112;28;11591;-66
2022/11/20 06:16:09;;;;;;;;;18.00;15.00;;;;;-0.44;68.39;101192.53;5032540;28;11604;-65
2022/11/20 06:18:36;;;;;;;;;18.00;15.50;;;;;-0.45;69.15;101196.13;5028277;28;11652;-64
2022/11/20 06:21:11;;;;;;;;;20.00;16.75;;;;;-0.45;69.24;101204.06;5032235;28;11575;-66
2022/11/20 06:23:38;;;;;;;;;18.25;14.00;;;;;-0.46;68.84;101195.28;5032075;28;12352;-65
2022/11/20 06:26:07;;;;;;;;;23.50;18.00;;;;;-0.47;68.83;101190.13;5046909;28;11597;-66
2022/11/20 06:28:33;;;;;;;;;24.00;16.00;;;;;-0.48;69.10;101191.09;5020600;28;11651;-66
2022/11/20 06:31:00;;;;;;;;;36.25;23.00;;;;;-0.47;69.26;101190.97;5025722;28;11692;-66
2022/11/20 06:33:27;;;;;;;;;21.25;17.00;;;;;-0.48;69.20;101189.28;5023372;28;11582;-66
2022/11/20 06:35:57;;;;;;;;;24.00;20.50;;;;;-0.48;69.37;101199.03;5032070;28;11583;-66
2022/11/20 06:38:28;;;;;;;;;20.25;16.00;;;;;-0.45;69.15;101188.19;5032282;28;11612;-66
2022/11/20 06:40:55;;;;;;;;;19.50;14.50;;;;;-0.44;68.99;101184.59;5026010;28;11577;-66
2022/11/20 06:43:22;;;;;;;;;17.75;16.75;;;;;-0.42;69.80;101187.97;5020157;28;11634;-66
2022/11/20 06:45:56;;;;;;;;;25.25;18.00;;;;;-0.42;69.41;101180.88;5031849;28;11583;-65
2022/11/20 06:48:23;;;;;;;;;17.25;14.75;;;;;-0.41;69.42;101176.41;5032040;28;12331;-65
2022/11/20 06:50:50;;;;;;;;;18.50;15.25;;;;;-0.43;69.42;101179.19;5029942;28;11552;-65
2022/11/20 06:53:16;;;;;;;;;14.00;14.00;;;;;-0.42;69.25;101190.59;5033331;28;12593;-66
2022/11/20 06:55:44;;;;;;;;;21.25;18.00;;;;;-0.41;69.78;101168.50;5026414;28;11586;-64
2022/11/20 06:58:12;;;;;;;;;27.25;18.75;;;;;-0.40;69.78;101173.69;5047944;28;12368;-65
2022/11/20 07:00:38;;;;;;;;;30.25;21.25;;;;;-0.39;69.38;101177.16;5034970;28;11608;-65
2022/11/20 07:03:06;;;;;;;;;18.50;18.50;;;;;-0.42;69.24;101167.66;5033499;28;11610;-65
2022/11/20 07:05:33;;;;;;;;;17.50;15.25;;;;;-0.40;69.70;101165.75;5030124;28;11584;-65
2022/11/20 07:08:00;;;;;;;;;27.00;21.50;;;;;-0.39;69.46;101166.59;5031599;28;11587;-66
2022/11/20 07:10:26;;;;;;;;;19.50;19.50;;;;;-0.38;69.88;101158.53;5026895;28;11532;-66
2022/11/20 07:12:53;;;;;;;;;15.75;15.50;;;;;-0.36;69.85;101159.25;5021967;28;11542;-66
2022/11/20 07:15:21;;;;;;;;;23.00;19.25;;;;;-0.36;69.61;101153.13;5030416;28;11604;-66
2022/11/20 07:17:48;;;;;;;;;23.00;20.00;;;;;-0.37;69.36;101149.63;5030800;28;11560;-66
2022/11/20 07:20:15;;;;;;;;;21.50;18.50;;;;;-0.34;69.80;101149.41;5028540;28;11557;-66
2022/11/20 07:22:42;;;;;;;;;21.75;21.75;;;;;-0.36;70.01;101140.75;5023855;28;12286;-66
2022/11/20 07:25:09;;;;;;;;;26.50;25.50;;;;;-0.35;70.00;101152.16;5027457;28;11587;-66
2022/11/20 07:27:36;;;;;;;;;19.75;17.00;;;;;-0.32;70.01;101149.31;5024847;28;11697;-66
2022/11/20 07:30:03;;;;;;;;;19.75;18.25;;;;;-0.30;70.07;101153.50;5030450;28;11586;-66
2022/11/20 07:32:30;;;;;;;;;28.75;21.25;;;;;-0.27;70.52;101160.38;5024094;28;11583;-65
2022/11/20 07:34:57;;;;;;;;;21.50;20.00;;;;;-0.25;70.14;101159.28;5028703;28;11587;-65
2022/11/20 07:37:23;;;;;;;;;19.50;17.75;;;;;-0.21;70.42;101162.53;5028262;28;11665;-66
2022/11/20 07:39:50;;;;;;;;;24.75;20.00;;;;;-0.16;70.00;101168.34;5029774;28;11586;-64
2022/11/20 07:42:16;;;;;;;;;30.00;22.00;;;;;-0.15;70.17;101172.66;5030181;28;11570;-65
2022/11/20 07:44:42;;;;;;;;;35.00;21.75;;;;;-0.14;70.30;101166.41;5028555;28;11571;-65
2022/11/20 07:47:09;;;;;;;;;28.00;20.25;;;;;-0.13;70.05;101162.78;5026893;28;11577;-64
2022/11/20 07:49:35;;;;;;;;;21.75;20.75;;;;;-0.09;70.06;101161.59;5029076;28;11710;-65
2022/11/20 07:52:02;;;;;;;;;24.50;20.75;;;;;-0.05;70.42;101152.47;5030407;28;11576;-65
2022/11/20 07:54:30;;;;;;;;;23.00;17.50;;;;;-0.01;69.76;101147.78;5029467;28;11636;-65
2022/11/20 07:56:57;;;;;;;;;22.50;19.00;;;;;0.01;70.32;101148.50;5030514;28;11668;-65
2022/11/20 07:59:23;;;;;;;;;22.25;18.75;;;;;0.09;70.01;101148.75;5044119;28;11610;-66
2022/11/20 08:01:49;;;;;;;;;19.50;16.00;;;;;0.16;70.40;101142.03;5022436;28;11552;-66
2022/11/20 08:04:16;;;;;;;;;22.75;21.50;;;;;0.17;69.72;101134.94;5021230;28;11676;-66
2022/11/20 08:06:42;;;;;;;;;27.75;24.75;;;;;0.17;70.05;101143.72;5019260;28;11595;-66
2022/11/20 08:09:09;;;;;;;;;30.00;22.50;;;;;0.11;69.88;101138.03;5026936;28;11556;-66
2022/11/20 08:14:21;;;;;;;;;24.50;21.75;;;;;0.12;70.24;101142.38;5029578;28;11598;-66
2022/11/20 08:16:49;;;;;;;;;29.25;21.25;;;;;0.15;70.53;101139.50;5027532;28;11559;-66
2022/11/20 08:19:17;;;;;;;;;26.00;25.25;;;;;0.15;70.43;101132.38;5029619;28;11559;-65
2022/11/20 08:21:44;;;;;;;;;18.00;15.50;;;;;0.20;71.09;101137.31;5030254;28;11555;-66
2022/11/20 08:24:11;;;;;;;;;30.75;24.75;;;;;0.25;71.57;101137.81;5030887;28;11589;-66
2022/11/20 08:26:39;;;;;;;;;38.00;24.00;;;;;0.28;71.74;101129.63;5030200;28;11604;-66
2022/11/20 08:29:05;;;;;;;;;27.75;24.00;;;;;0.27;71.74;101135.88;5027232;28;11628;-64
2022/11/20 08:31:32;;;;;;;;;24.25;18.25;;;;;0.23;71.59;101135.28;5020567;28;11605;-66
2022/11/20 08:33:58;;;;;;;;;28.50;24.25;;;;;0.24;71.84;101138.75;5026613;28;11604;-65
2022/11/20 08:36:25;;;;;;;;;24.00;22.00;;;;;0.23;71.76;101142.38;5018715;28;11729;-66
2022/11/20 08:38:54;;;;;;;;;33.25;29.00;;;;;0.21;71.35;101137.22;5014695;28;11556;-66
2022/11/20 08:41:25;;;;;;;;;41.00;32.00;;;;;0.20;71.28;101145.25;5028695;28;11563;-66
2022/11/20 08:43:57;;;;;;;;;35.25;29.50;;;;;0.17;71.44;101142.88;5029991;28;11579;-66
2022/11/20 08:46:25;;;;;;;;;33.75;29.00;;;;;0.11;71.40;101138.88;5026840;28;11630;-66
2022/11/20 08:48:52;;;;;;;;;33.00;29.00;;;;;0.13;71.26;101144.09;5023953;28;11570;-63
2022/11/20 08:51:20;;;;;;;;;33.75;31.25;;;;;0.13;71.02;101154.66;5021665;28;11587;-65
2022/11/20 08:53:48;;;;;;;;;38.50;28.25;;;;;0.13;70.89;101152.03;5026172;28;11599;-65
2022/11/20 08:56:14;;;;;;;;;26.25;23.00;;;;;0.15;71.22;101147.44;5028179;28;11579;-65
2022/11/20 08:58:41;;;;;;;;;31.75;28.25;;;;;0.18;71.59;101133.97;5022170;28;11660;-66
2022/11/20 09:01:28;;;;;;;;;31.25;26.75;;;;;0.22;71.65;101132.75;5021803;28;11598;-66
2022/11/20 09:03:56;;;;;;;;;29.00;26.50;;;;;0.22;71.38;101128.31;5028084;28;11614;-66
2022/11/20 09:06:23;;;;;;;;;30.25;24.50;;;;;0.27;71.46;101133.22;5029535;28;11578;-66
2022/11/20 09:08:53;;;;;;;;;26.50;25.50;;;;;0.26;71.57;101130.72;5022102;28;11585;-66
2022/11/20 09:11:20;;;;;;;;;32.25;31.00;;;;;0.28;71.38;101126.13;5026654;28;11569;-66
2022/11/20 09:13:46;;;;;;;;;39.00;29.50;;;;;0.27;71.22;101121.81;5029418;28;12317;-65
2022/11/20 09:16:13;;;;;;;;;30.50;25.00;;;;;0.30;71.76;101109.19;5017686;28;11595;-66
2022/11/20 09:18:39;;;;;;;;;34.50;31.75;;;;;0.34;71.74;101107.97;5027994;28;11594;-66
2022/11/20 09:21:10;;;;;;;;;33.75;32.50;;;;;0.39;71.12;101100.50;5028570;28;11595;-66
2022/11/20 09:23:38;;;;;;;;;30.75;29.25;;;;;0.41;71.16;101098.59;5024664;28;11640;-65
2022/11/20 09:26:06;;;;;;;;;38.50;35.50;;;;;0.42;71.48;101105.56;5033070;28;11709;-64
2022/11/20 09:28:33;;;;;;;;;40.50;30.75;;;;;0.47;71.04;101106.03;5032350;28;11578;-64
2022/11/20 09:30:59;;;;;;;;;30.00;28.50;;;;;0.53;70.87;101104.72;5029580;28;11631;-65
2022/11/20 09:33:26;;;;;;;;;35.00;29.75;;;;;0.60;70.85;101091.78;5027960;28;11577;-66
2022/11/20 09:35:53;;;;;;;;;42.50;35.75;;;;;0.68;71.15;101081.41;5022776;28;11621;-65
2022/11/20 09:38:19;;;;;;;;;37.00;32.75;;;;;0.73;70.50;101081.91;5019591;28;12277;-63
2022/11/20 09:41:06;;;;;;;;;40.50;36.00;;;;;0.77;70.44;101077.16;5025520;28;11571;-64
2022/11/20 09:43:42;;;;;;;;;33.25;30.00;;;;;0.85;70.79;101080.03;5028267;28;11624;-65
2022/11/20 09:46:14;;;;;;;;;43.50;36.50;;;;;0.81;70.38;101073.31;5031357;28;11623;-64
2022/11/20 09:48:56;;;;;;;;;42.25;38.00;;;;;0.85;70.33;101080.91;5032182;28;11625;-65
2022/11/20 09:51:52;;;;;;;;;38.25;33.75;;;;;0.86;70.51;101064.03;5035615;28;11562;-65
2022/11/20 09:54:20;;;;;;;;;39.25;33.75;;;;;0.88;70.75;101067.38;5029640;28;11600;-63
2022/11/20 09:56:56;;;;;;;;;45.00;34.50;;;;;0.95;70.51;101065.06;5032216;28;11713;-65
2022/11/20 09:59:44;;;;;;;;;32.75;29.25;;;;;0.99;70.55;101054.09;5031854;28;11642;-65
2022/11/20 10:02:30;;;;;;;;;41.00;35.33;;;;;0.92;70.73;101060.03;5032199;28;11573;-65
2022/11/20 10:05:06;;;;;;;;;36.00;27.25;;;;;0.95;70.66;101057.97;5031881;28;11607;-65
2022/11/20 10:07:44;;;;;;;;;44.50;41.00;;;;;0.93;70.90;101051.97;5027067;28;11570;-65
2022/11/20 10:10:27;;;;;;;;;34.00;30.25;;;;;0.99;70.74;101055.91;5028030;28;11580;-65
2022/11/20 10:13:37;;;;;;;;;43.50;39.25;;;;;0.93;71.11;101059.03;5028700;28;11601;-65
2022/11/20 10:16:41;;;;;;;;;48.50;36.75;;;;;0.94;71.38;101039.56;5032272;28;11613;-65
2022/11/20 10:19:35;;;;;;;;;37.75;32.00;;;;;1.03;71.74;101022.88;5031326;28;11581;-65
2022/11/20 10:22:22;;;;;;;;;33.00;30.25;;;;;1.11;71.57;101014.28;5036217;28;11688;-65
2022/11/20 10:24:54;;;;;;;;;52.25;44.25;;;;;1.08;70.82;101010.06;5031024;28;11574;-65
2022/11/20 10:28:10;;;;;;;;;43.50;41.00;;;;;1.05;71.48;101001.53;5033937;28;12314;-65
2022/11/20 10:30:43;;;;;;;;;46.25;37.00;;;;;1.13;71.90;101001.72;4990693;28;11699;-65
2022/11/20 10:33:23;;;;;;;;;48.75;43.75;;;;;1.21;71.66;100993.97;5012138;28;11706;-64
2022/11/20 10:35:58;;;;;;;;;33.75;30.75;;;;;1.26;71.45;100996.22;5030857;28;11593;-64
2022/11/20 10:38:30;;;;;;;;;32.25;31.75;;;;;1.30;71.63;100993.19;5031631;28;12366;-64
2022/11/20 10:43:53;;;;;;;;;44.50;41.00;;;;;1.21;71.45;100984.19;5030904;28;11575;-65
2022/11/20 10:46:22;;;;;;;;;43.50;39.25;;;;;1.23;71.88;100978.78;5040756;28;11601;-65
2022/11/20 10:48:49;;;;;;;;;36.50;36.25;;;;;1.23;71.32;100979.63;5031966;28;11675;-65
2022/11/20 10:51:39;;;;;;;;;49.25;35.75;;;;;1.32;71.73;100966.53;5031427;28;12335;-65
2022/11/20 10:54:34;;;;;;;;;47.00;35.75;;;;;1.36;71.71;100960.00;5032347;28;11720;-65
2022/11/20 10:57:13;;;;;;;;;36.75;33.75;;;;;1.42;71.41;100944.41;5026386;28;11808;-62
2022/11/20 10:59:45;;;;;;;;;37.00;36.25;;;;;1.46;71.79;100940.53;5029474;28;11595;-64
2022/11/20 11:02:23;;;;;;;;;36.00;30.00;;;;;1.55;71.55;100943.34;5024239;28;11580;-64
2022/11/20 11:04:54;;;;;;;;;45.00;37.00;;;;;1.51;71.52;100941.94;5022984;28;11549;-64
2022/11/20 11:07:30;;;;;;;;;42.75;35.25;;;;;1.58;72.00;100941.28;5029427;28;11577;-64
2022/11/20 11:09:57;;;;;;;;;40.50;35.00;;;;;1.57;71.63;100936.91;5030335;28;11570;-65
2022/11/20 11:12:26;;;;;;;;;46.00;36.50;;;;;1.56;71.45;100932.59;5031094;28;11594;-65
2022/11/20 11:14:55;;;;;;;;;40.00;31.75;;;;;1.53;71.76;100932.84;5031119;28;11591;-65
2022/11/20 11:17:34;;;;;;;;;51.75;36.25;;;;;1.54;72.27;100920.44;5030065;28;11585;-65
2022/11/20 11:20:16;;;;;;;;;42.50;36.00;;;;;1.58;72.17;100914.75;5027985;28;11601;-65
2022/11/20 11:22:49;;;;;;;;;44.75;39.25;;;;;1.57;71.99;100914.84;5020129;28;11614;-66
2022/11/20 11:25:36;;;;;;;;;33.50;30.00;;;;;1.61;72.08;100914.44;5030925;28;11628;-65
2022/11/20 11:28:19;;;;;;;;;38.50;30.75;;;;;1.68;72.18;100915.59;5033331;28;11714;-64
2022/11/20 11:30:49;;;;;;;;;43.00;34.75;;;;;1.70;71.99;100911.00;5030137;28;11572;-65
2022/11/20 11:33:21;;;;;;;;;40.75;37.00;;;;;1.65;71.46;100896.44;5028634;28;11626;-64
2022/11/20 11:35:59;;;;;;;;;43.75;39.50;;;;;1.61;72.04;100887.09;5027826;28;11718;-65
2022/11/20 11:38:37;;;;;;;;;49.00;43.50;;;;;1.58;72.44;100890.00;5027017;28;11562;-65